createdAt,value
2019-02-04T00:02:23.137Z,20
2019-02-04T00:07:25.671Z,19
2019-02-04T00:12:28.051Z,18
2019-02-04T00:17:30.524Z,18
2019-02-04T00:22:32.972Z,18
2019-02-04T00:27:35.472Z,18
2019-02-04T00:32:37.906Z,19
2019-02-04T00:37:40.658Z,19
2019-02-04T00:42:42.824Z,19
2019-02-04T00:47:45.276Z,20
2019-02-04T00:52:47.742Z,17
2019-02-04T00:57:50.204Z,18
2019-02-04T01:02:52.687Z,17
2019-02-04T01:07:55.129Z,16
2019-02-04T01:12:57.649Z,16
2019-02-04T01:18:00.058Z,17
2019-02-04T01:23:02.520Z,16
2019-02-04T01:28:04.973Z,14
2019-02-04T01:33:07.439Z,12
2019-02-04T01:38:09.889Z,11
2019-02-04T01:43:12.353Z,11
2019-02-04T01:48:14.850Z,10
2019-02-04T01:53:17.328Z,12
2019-02-04T01:58:19.745Z,13
2019-02-04T02:03:22.209Z,18
2019-02-04T02:08:24.993Z,16
2019-02-04T02:13:27.122Z,18
2019-02-04T02:18:29.589Z,16
2019-02-04T02:23:32.100Z,16
2019-02-04T02:28:34.535Z,17
2019-02-04T02:33:37.007Z,17
2019-02-04T02:38:39.443Z,19
2019-02-04T02:43:41.933Z,17
2019-02-04T02:48:44.374Z,17
2019-02-04T02:53:46.852Z,16
2019-02-04T02:58:49.299Z,15
2019-02-04T03:03:51.787Z,16
2019-02-04T03:08:54.245Z,16
2019-02-04T03:13:56.680Z,16
2019-02-04T03:18:59.170Z,15
2019-02-04T03:24:01.623Z,14
2019-02-04T03:29:04.069Z,14
2019-02-04T03:34:06.532Z,13
2019-02-04T03:39:09.014Z,12
2019-02-04T03:44:11.485Z,12
2019-02-04T03:49:13.948Z,11
2019-02-04T03:54:16.383Z,10
2019-02-04T03:59:18.850Z,10
2019-02-04T04:04:21.296Z,9
2019-02-04T04:09:23.793Z,8
2019-02-04T04:14:26.235Z,9
2019-02-04T04:19:28.848Z,7
2019-02-04T04:24:31.207Z,8
2019-02-04T04:29:33.637Z,7
2019-02-04T04:34:36.069Z,7
2019-02-04T04:39:38.576Z,8
2019-02-04T04:44:41.000Z,9
2019-02-04T04:49:43.497Z,7
2019-02-04T04:54:46.003Z,8
2019-02-04T04:59:48.390Z,8
2019-02-04T05:04:50.857Z,8
2019-02-04T05:09:53.333Z,8
2019-02-04T05:14:55.817Z,8
2019-02-04T05:19:58.253Z,9
2019-02-04T05:25:00.750Z,8
2019-02-04T05:30:03.249Z,11
2019-02-04T05:35:05.627Z,10
2019-02-04T05:40:08.305Z,9
2019-02-04T05:45:10.581Z,8
2019-02-04T05:50:13.050Z,9
2019-02-04T05:55:15.571Z,8
2019-02-04T06:00:17.944Z,9
2019-02-04T06:05:20.402Z,8
2019-02-04T06:10:22.903Z,5
2019-02-04T06:15:25.324Z,9
2019-02-04T06:20:27.783Z,8
2019-02-04T06:25:30.283Z,9
2019-02-04T06:30:32.732Z,8
2019-02-04T06:35:35.158Z,8
2019-02-04T06:40:37.618Z,9
2019-02-04T06:45:40.076Z,7
2019-02-04T06:50:42.557Z,9
2019-02-04T06:55:45.016Z,9
2019-02-04T07:00:47.565Z,9
2019-02-04T07:05:49.911Z,8
2019-02-04T07:10:52.419Z,8
2019-02-04T07:15:54.913Z,9
2019-02-04T07:20:57.316Z,9
2019-02-04T07:25:59.767Z,8
2019-02-04T07:31:02.299Z,10
2019-02-04T07:36:04.697Z,10
2019-02-04T07:41:07.186Z,11
2019-02-04T07:46:09.644Z,6
2019-02-04T07:51:12.090Z,8
2019-02-04T07:56:14.563Z,8
2019-02-04T08:01:17.106Z,7
2019-02-04T08:06:19.503Z,7
2019-02-04T08:11:22.063Z,7
2019-02-04T08:16:24.420Z,6
2019-02-04T08:21:26.881Z,7
2019-02-04T08:26:30.089Z,7
2019-02-04T08:31:31.816Z,5
2019-02-04T08:36:43.230Z,6
2019-02-04T08:41:36.754Z,5
2019-02-04T08:46:39.272Z,5
2019-02-04T08:51:41.660Z,4
2019-02-04T08:56:44.171Z,4
2019-02-04T09:01:46.553Z,5
2019-02-04T09:06:49.001Z,6
2019-02-04T09:11:51.536Z,6
2019-02-04T09:16:54.038Z,6
2019-02-04T09:21:56.411Z,6
2019-02-04T09:26:58.858Z,7
2019-02-04T09:32:01.431Z,5
2019-02-04T09:37:03.770Z,5
2019-02-04T09:42:06.235Z,5
2019-02-04T09:47:08.693Z,6
2019-02-04T09:52:11.132Z,4
2019-02-04T09:57:13.586Z,3
2019-02-04T10:02:16.062Z,6
2019-02-04T10:07:18.507Z,3
2019-02-04T10:12:20.967Z,3
2019-02-04T10:17:23.440Z,3
2019-02-04T10:22:25.912Z,3
2019-02-04T10:27:28.398Z,3
2019-02-04T10:32:30.833Z,3
2019-02-04T10:37:33.290Z,3
2019-02-04T10:42:35.729Z,3
2019-02-04T10:47:38.318Z,2
2019-02-04T10:52:40.764Z,2
2019-02-04T10:57:43.186Z,5
2019-02-04T11:02:45.646Z,3
2019-02-04T11:07:48.016Z,2
2019-02-04T11:12:50.525Z,3
2019-02-04T11:17:52.997Z,2
2019-02-04T11:22:55.380Z,2
2019-02-04T11:27:57.885Z,2
2019-02-04T11:33:00.338Z,4
2019-02-04T11:38:02.767Z,4
2019-02-04T11:43:05.265Z,3
2019-02-04T11:48:07.817Z,1
2019-02-04T11:53:10.148Z,6
2019-02-04T11:58:12.648Z,3
2019-02-04T12:03:15.046Z,2
2019-02-04T12:08:17.534Z,5
2019-02-04T12:13:19.987Z,6
2019-02-04T12:18:22.418Z,9
2019-02-04T12:23:24.902Z,3
2019-02-04T12:28:27.339Z,1
2019-02-04T12:33:29.921Z,2
2019-02-04T12:38:32.407Z,2
2019-02-04T12:43:34.754Z,2
2019-02-04T12:48:37.226Z,2
2019-02-04T12:53:39.642Z,2
2019-02-04T12:58:42.114Z,1
2019-02-04T13:03:44.547Z,2
2019-02-04T13:08:47.012Z,3
2019-02-04T13:13:49.500Z,2
2019-02-04T13:18:51.951Z,1
2019-02-04T13:23:54.390Z,2
2019-02-04T13:28:56.838Z,3
2019-02-04T13:33:59.343Z,3
2019-02-04T13:39:01.823Z,2
2019-02-04T13:44:04.215Z,2
2019-02-04T13:49:06.664Z,1
2019-02-04T13:54:09.166Z,2
2019-02-04T13:59:11.592Z,2
2019-02-04T14:04:14.109Z,5
2019-02-04T14:09:16.564Z,6
2019-02-04T14:14:19.028Z,3
2019-02-04T14:19:21.506Z,5
2019-02-04T14:24:23.889Z,2
2019-02-04T14:29:26.341Z,3
2019-02-04T14:34:28.807Z,2
2019-02-04T14:39:31.294Z,2
2019-02-04T14:44:33.744Z,2
2019-02-04T14:49:36.157Z,1
2019-02-04T14:54:38.812Z,2
2019-02-04T14:59:41.337Z,3
2019-02-04T15:04:43.530Z,2
2019-02-04T15:09:45.987Z,2
2019-02-04T15:14:48.444Z,3
2019-02-04T15:19:50.907Z,4
2019-02-04T15:24:53.389Z,3
2019-02-04T15:29:55.956Z,2
2019-02-04T15:35:04.321Z,3
2019-02-04T15:40:00.842Z,4
2019-02-04T15:45:03.238Z,7
2019-02-04T15:50:05.695Z,12
2019-02-04T15:55:08.166Z,18
2019-02-04T16:00:10.629Z,15
2019-02-04T16:05:13.367Z,6
2019-02-04T16:10:15.522Z,6
2019-02-04T16:15:18.189Z,4
2019-02-04T16:20:20.459Z,3
2019-02-04T16:25:22.905Z,4
2019-02-04T16:30:25.422Z,5
2019-02-04T16:35:27.888Z,5
2019-02-04T16:40:30.345Z,7
2019-02-04T16:45:32.769Z,6
2019-02-04T16:50:35.307Z,7
2019-02-04T16:55:37.667Z,7
2019-02-04T17:00:40.174Z,6
2019-02-04T17:05:42.593Z,8
2019-02-04T17:10:45.083Z,10
2019-02-04T17:15:47.549Z,15
2019-02-04T17:20:50.109Z,8
2019-02-04T17:25:52.405Z,10
2019-02-04T17:30:54.876Z,10
2019-02-04T17:35:57.351Z,10
2019-02-04T17:40:59.893Z,13
2019-02-04T17:46:02.325Z,12
2019-02-04T17:51:04.705Z,12
2019-02-04T17:56:07.397Z,12
2019-02-04T18:01:09.701Z,12
2019-02-04T18:06:12.258Z,15
2019-02-04T18:11:14.552Z,16
2019-02-04T18:16:17.026Z,11
2019-02-04T18:21:19.431Z,12
2019-02-04T18:26:21.931Z,11
2019-02-04T18:31:24.369Z,11
2019-02-04T18:36:26.843Z,10
2019-02-04T18:41:29.295Z,11
2019-02-04T18:46:31.712Z,11
2019-02-04T18:51:34.181Z,12
2019-02-04T18:56:36.671Z,12
2019-02-04T19:01:39.080Z,17
2019-02-04T19:06:47.530Z,15
2019-02-04T19:11:44.022Z,13
2019-02-04T19:16:46.447Z,14
2019-02-04T19:21:49.035Z,13
2019-02-04T19:26:53.950Z,15
2019-02-04T19:31:53.832Z,15
2019-02-04T19:36:56.300Z,13
2019-02-04T19:41:58.753Z,13
2019-02-04T19:47:01.352Z,13
2019-02-04T19:52:03.644Z,12
2019-02-04T19:57:06.390Z,11
2019-02-04T20:02:08.610Z,11
2019-02-04T20:07:11.043Z,7
2019-02-04T20:12:13.472Z,7
2019-02-04T20:17:15.943Z,7
2019-02-04T20:22:18.382Z,7
2019-02-04T20:27:20.854Z,4
2019-02-04T20:32:23.299Z,7
2019-02-04T20:37:25.773Z,11
2019-02-04T20:42:28.291Z,8
2019-02-04T20:47:30.731Z,5
2019-02-04T20:52:33.123Z,4
2019-02-04T20:57:35.650Z,5
2019-02-04T21:02:38.105Z,4
2019-02-04T21:07:40.529Z,4
2019-02-04T21:12:42.957Z,4
2019-02-04T21:17:45.719Z,5
2019-02-04T21:22:47.899Z,11
2019-02-04T21:27:50.325Z,5
2019-02-04T21:32:52.938Z,4
2019-02-04T21:37:55.242Z,5
2019-02-04T21:42:57.705Z,5
2019-02-04T21:48:00.150Z,5
2019-02-04T21:53:02.648Z,6
2019-02-04T21:58:05.068Z,6
2019-02-04T22:03:07.519Z,4
2019-02-04T22:08:10.114Z,6
2019-02-04T22:13:12.430Z,14
2019-02-04T22:18:14.923Z,6
2019-02-04T22:23:17.381Z,5
2019-02-04T22:28:19.836Z,5
2019-02-04T22:33:22.263Z,5
2019-02-04T22:38:24.733Z,6
2019-02-04T22:43:27.183Z,5
2019-02-04T22:48:29.637Z,7
2019-02-04T22:53:32.090Z,5
2019-02-04T22:58:34.601Z,5
2019-02-04T23:03:37.021Z,5
2019-02-04T23:08:39.454Z,4
2019-02-04T23:13:41.916Z,5
2019-02-04T23:18:44.388Z,4
2019-02-04T23:23:46.880Z,4
2019-02-04T23:28:49.276Z,4
2019-02-04T23:33:51.771Z,4
2019-02-04T23:38:54.248Z,4
2019-02-04T23:43:56.673Z,3
2019-02-04T23:48:59.135Z,5
2019-02-04T23:54:01.579Z,4
2019-02-04T23:59:04.043Z,5
